Terminal Aerodrome Forecast
Issued by NWS Melbourne, FL

Home | Current Version | Previous Version | Text Only | Print | Product List | Glossary On
Versions: 1 2 3 4 5 6 7 8 9 10 11 12 13
000
FTUS42 KMLB 210700 AAA
TAFVRB
TAF AMD
KVRB 210739Z 2108/2206 19003KT P6SM SCT050 BKN100
      TEMPO 2108/2112 5SM BR FEW010
     FM211700 15008KT P6SM SCT035 OVC080
     FM220200 19004KT P6SM SCT030 OVC060=

USA.gov is the U.S. government's official web portal to all federal, state and local government web resources and services.